• Join FlightAware (Why Join?)
  • Login
  • US Flag 
03:03PM EDT


 

Airport Tracker/Info


-or-


 

Live Flight TrackerFlight Track Log ✈ N777NC ✈ 11-Jul-2013 ✈ KORD - KATL

Flight Track Log - Related Links

Times and Time Zones

All times are in EDT time to prevent confusion due to time zone crossing. See the N777NC flight status page for this flight to view local times or setup timezone preferences in your user account.

Time Position Orientation Groundspeed Altitude Reporting Facility
EDT Latitude Longitude Course Direction KTS MPH feet Rate Location/Type
07:41AM 42.0167 -88.0000 180° South 209 241 3,000  Level Chicago TRACON
07:42AM 41.9667 -88.0500 217° Southwest 254 292 4,700 1,620 Climbing Chicago TRACON
07:43AM 41.9000 -88.0167 160° South 277 319 6,300 1,740 Climbing Chicago TRACON
07:44AM 41.5692 -87.7135 180° South  Level Estimated
07:45AM 41.4661 -87.6656 168° South  Level Estimated
07:45AM 41.7875 -87.9475 155° Southeast 294 338 9,100  Level Chicago Center
07:46AM 41.3629 -87.6178 180° South  Level Estimated
07:46AM 41.7067 -87.9058 159° South 308 354 11,000  Level Chicago Center
07:47AM 41.6225 -87.8736 164° South 313 360 12,600 1,020 Climbing Chicago Center
07:48AM 41.5258 -87.8450 168° South 352 405 13,200 780 Climbing Chicago Center
07:49AM 41.4175 -87.8156 168° South 384 442 14,300 1,440 Climbing Chicago Center
07:50AM 41.3064 -87.7864 169° South 401 461 16,200 1,800 Climbing Chicago Center
07:51AM 41.1692 -87.7531 170° South 415 478 18,000 1,500 Climbing Chicago Center
07:52AM 41.0517 -87.7325 172° South 425 489 19,300 1,260 Climbing Chicago Center
07:53AM 40.9328 -87.7058 170° South 431 496 20,700 1,260 Climbing Chicago Center
07:54AM 40.8122 -87.6706 168° South 444 511 21,900 1,140 Climbing Chicago Center
07:55AM 40.6900 -87.6283 165° South 452 520 23,100 1,020 Climbing Chicago Center
07:56AM 40.5686 -87.5819 164° South 457 526 24,100 960 Climbing Chicago Center
07:57AM 40.4181 -87.5258 164° South 469 540 25,200 900 Climbing Chicago Center
07:58AM 40.2911 -87.4769 164° South 476 548 26,000 840 Climbing Chicago Center
07:59AM 40.1606 -87.4281 164° South 484 557 27,000 720 Climbing Chicago Center
08:00AM 40.0556 -87.3881 164° South 483 556 27,400 540 Climbing Indianapolis Center
08:01AM 39.9247 -87.3394 164° South 490 564 28,100 480 Climbing Indianapolis Center
08:02AM 39.7664 -87.2883 166° South 493 567 28,500 480 Climbing Indianapolis Center
08:03AM 39.6317 -87.2481 167° South 498 573 29,100 240 Climbing Indianapolis Center
08:04AM 39.4983 -87.2072 167° South 498 573 29,000 -60 Descending Indianapolis Center
08:05AM 39.3669 -87.1669 167° South 493 567 29,000  Level Indianapolis Center
08:06AM 39.2364 -87.1289 167° South 486 559 29,000  Level Indianapolis Center
08:07AM 39.0908 -87.0761 164° South 486 559 29,000  Level Indianapolis Center
08:08AM 38.9622 -87.0150 160° South 487 560 29,000  Level Indianapolis Center
08:09AM 38.8331 -86.9528 159° South 490 564 29,000  Level Indianapolis Center
08:10AM 38.7028 -86.8981 162° South 490 564 29,000  Level Indianapolis Center
08:11AM 38.5711 -86.8492 164° South 487 560 29,000  Level Indianapolis Center
08:12AM 38.4392 -86.8006 164° South 485 558 29,000  Level Indianapolis Center
08:13AM 38.3064 -86.7539 165° South 484 557 29,000  Level Indianapolis Center
08:14AM 38.1744 -86.7139 167° South 480 552 29,000  Level Indianapolis Center
08:15AM 38.0431 -86.6744 167° South 479 551 29,000  Level Indianapolis Center
08:16AM 37.9125 -86.6403 168° South 476 548 29,000  Level Indianapolis Center
08:18AM 37.7819 -86.6067 168° South 476 548 29,000  Level Indianapolis Center
08:19AM 37.6258 -86.5719 170° South 470 541 29,000  Level Indianapolis Center
08:20AM 37.4917 -86.5597 176° South 471 542 29,000  Level Indianapolis Center
08:21AM 37.3603 -86.5458 175° South 470 541 29,000  Level Indianapolis Center
08:22AM 37.2283 -86.5306 175° South 470 541 29,000  Level Indianapolis Center
08:23AM 37.0989 -86.5283 179° South 459 528 29,000  Level Indianapolis Center
08:23AM 37.0114 -86.5692 200° South 458 527 29,000  Level Memphis Center
08:24AM 36.8944 -86.6267 201° Southwest 458 527 29,000  Level Memphis Center
08:25AM 36.7731 -86.6736 197° South 458 527 29,000  Level Memphis Center
08:26AM 36.6433 -86.6589 175° South 449 517 29,000  Level Memphis Center
08:27AM 36.5131 -86.6286 169° South 463 533 29,000  Level Memphis Center
08:28AM 36.3833 -86.6064 172° South 469 540 29,000  Level Memphis Center
08:29AM 36.2658 -86.5808 170° South 474 545 29,000  Level Memphis Center
08:30AM 36.1339 -86.5614 173° South 474 545 29,000  Level Memphis Center
08:31AM 36.0078 -86.5286 168° South 468 539 29,000  Level Memphis Center
08:33AM 35.7900 -86.3811 151° Southeast 464 534 29,000  Level Atlanta Center
08:34AM 35.6747 -86.2961 149° Southeast 480 552 29,000  Level Atlanta Center
08:35AM 35.5717 -86.2192 149° Southeast 480 552 29,000  Level Atlanta Center
08:36AM 35.4503 -86.1217 147° Southeast 486 559 29,000 -360 Level Atlanta Center
08:37AM 35.3469 -86.0581 153° Southeast 476 548 28,300 -1,620 Descending Atlanta Center
08:38AM 35.2306 -86.0297 169° South 439 505 25,800 -2,160 Descending Atlanta Center
08:39AM 35.1078 -86.0089 172° South 418 481 24,000 -900 Descending Atlanta Center
08:40AM 34.9956 -85.9886 172° South 412 474 24,000  Level Atlanta Center
08:41AM 34.9067 -85.9258 150° Southeast 407 468 24,000  Level Atlanta Center
08:42AM 34.8100 -85.8450 146° Southeast 408 470 24,000  Level Atlanta Center
08:43AM 34.7006 -85.7517 145° Southeast 424 488 24,000 -360 Level Atlanta Center
08:44AM 34.6039 -85.6639 143° Southeast 436 502 23,300 -960 Descending Atlanta Center
08:45AM 34.5175 -85.5614 136° Southeast 441 507 22,100 -1,200 Descending Atlanta Center
08:46AM 34.4414 -85.4544 131° Southeast 429 494 21,000 -900 Descending Atlanta Center
08:47AM 34.3717 -85.3525 130° Southeast 415 478 20,300 -1,200 Descending Atlanta Center
08:48AM 34.3058 -85.2483 127° Southeast 405 466 18,600 -1,860 Descending Atlanta Center
08:49AM 34.2611 -85.1397 116° Southeast 377 434 16,600 -2,160 Descending Atlanta Center
08:50AM 34.1992 -85.0508 130° Southeast 357 411 14,300 -1,320 Descending Atlanta Center
08:51AM 34.1097 -85.0022 156° South 342 394 14,000 -300 Descending Atlanta Center
08:52AM 34.0311 -84.9411 147° Southeast 342 394 13,800 -900 Descending Atlanta Center
08:53AM 33.9814 -84.8631 128° Southeast 303 349 12,200 -900 Descending Atlanta Center
08:54AM 33.9236 -84.7872 133° Southeast 298 343 12,100 -60 Descending Atlanta Center
08:55AM 33.8656 -84.7192 136° Southeast 293 337 12,100  Level Atlanta Center
08:56AM 33.8167 -84.6667 138° Southeast 292 336 12,100  Level Atlanta TRACON
08:57AM 33.7667 -84.6000 132° Southeast 299 344 12,100 -720 Level Atlanta TRACON
08:58AM 33.7333 -84.5167 116° Southeast 293 337 10,800 -1,680 Descending Atlanta TRACON
08:59AM 33.7500 -84.4167 79° East 304 350 9,000 -1,740 Descending Atlanta TRACON
09:00AM 33.7500 -84.3167 90° East 288 331 7,200 -1,620 Descending Atlanta TRACON
09:01AM 33.7500 -84.2167 90° East 280 322 5,700 -1,140 Descending Atlanta TRACON
09:02AM 33.7500 -84.1167 90° East 278 320 5,000 -360 Descending Atlanta TRACON
09:03AM 33.7500 -84.0333 90° East 252 290 5,000  Level Atlanta TRACON
09:04AM 33.7333 -83.9667 107° East 238 274 5,100  Climbing Atlanta TRACON
09:05AM 33.6667 -83.9667 180° South 229 264 5,100  Level Atlanta TRACON
09:06AM 33.6500 -84.0333 253° West 221 254 5,100  Level Atlanta TRACON
09:07AM 33.6500 -84.1000 270° West 226 260 5,100 -240 Level Atlanta TRACON
09:08AM 33.6500 -84.1833 270° West 220 253 4,700 -780 Descending Atlanta TRACON
09:09AM 33.6500 -84.2500 270° West 198 228 3,500 -1,140 Descending Atlanta TRACON